Great Republic — WDH7561 — position and weather

sailwx.info

Track history (hours):
 
Tides and Currents Weather Stations Pressure Air Temp Water Temp Dewpoint Dewpoint Depression Visibility Wind Speed Wind Dir Waves Ship Positions

Great Republic

Owner: Great Lakes Fleet, Inc., Homewood, IL. More information available from US FCC via Universal Licensing System and Coast Guard Vessel Documentation Center.

Last reported at 2018-Jun-21 16:00 UTC. Time now 2018-Jun-21 16:29 UTC.
Position N 47°36' W 088°06'.

Length 190 m; draft 6.4 m.

Type: . MMSI: 368183000.

Wind from 110 at 18 knots

Barometer 1018.6 mb
Air temperature 6.1 ° C
Visibility: greater than 10.8 NM
Water temperature 4.4 ° C

Date/timePositionNaut miles runAvg speedWind from/ knotsBaromVisibWave heightAir tempDewpointWater temp
2018-Jun-21 16:00N 47°36' W 088°06'7913.2 110 / 181018.610.8 6.1 4.4
2018-Jun-21 10:00N 47°18' W 090°00'2610.6 090 / 201015.9 5.4 4.9
2018-Jun-21 07:34N 47°13' W 090°37'112.7
2018-Jun-21 07:30N 47°13' W 090°38'24 9.5
2018-Jun-21 05:00N 47°06' W 091°12'1429.8 040 / 181015.910.8 7.2 4.9
2018-Jun-21 04:31N 46°58' W 091°29'212.4
2018-Jun-21 04:24N 46°58' W 091°31'512.4
2018-Jun-21 04:00N 46°56' W 091°38'2274.9
2018-Jun-21 04:00N 46°54' W 091°36'714.1 050 / 241015.910.8 7.7 5.5
2018-Jun-21 03:30N 46°53' W 091°46'612.1
2018-Jun-21 03:00N 46°50' W 091°54'612.1
2018-Jun-21 02:30N 46°48' W 092°02'3 6.8
2018-Jun-21 02:00N 46°46' W 092°06'1 1.5
2018-Jun-21 01:30N 46°45' W 092°06'1 1.7
2018-Jun-21 00:59N 46°45' W 092°07'0 0.0
2018-Jun-21 00:30N 46°45' W 092°07'0 0.0
2018-Jun-21 00:00N 46°45' W 092°07'0 0.0
2018-Jun-20 23:25N 46°45' W 092°07'0 0.0
2018-Jun-20 23:00N 46°45' W 092°07'0 0.0
2018-Jun-20 22:30N 46°45' W 092°07'0 0.0
2018-Jun-20 22:00N 46°45' W 092°07'0 0.0
2018-Jun-20 21:30N 46°45' W 092°07'0 0.0
2018-Jun-20 21:00N 46°45' W 092°07'1 0.5
2018-Jun-20 19:41N 46°45' W 092°08'0 0.0
2018-Jun-20 19:30N 46°45' W 092°08'0 0.0
2018-Jun-20 19:00N 46°45' W 092°08'0 0.0
2018-Jun-20 18:30N 46°45' W 092°08'3 6.0
2018-Jun-20 18:00N 46°42' W 092°06'32777.0 270 / 31014.510.8 23.3
2018-Jun-20 17:59N 46°45' W 092°08'0 0.0
2018-Jun-20 17:30N 46°45' W 092°08'0 0.0
2018-Jun-20 17:00N 46°45' W 092°08'0 0.0
2018-Jun-20 16:30N 46°45' W 092°08'0 0.0
2018-Jun-20 16:00N 46°45' W 092°08'31851.4
2018-Jun-20 16:00N 46°42' W 092°06'3 6.1 020 / 21015.510.8 21.6
2018-Jun-20 15:29N 46°45' W 092°08'0 0.2
2018-Jun-20 15:00N 46°45' W 092°08'0 0.6
2018-Jun-20 14:30N 46°45' W 092°08'0 0.0
2018-Jun-20 14:00N 46°45' W 092°08'0 0.0
2018-Jun-20 13:30N 46°45' W 092°08'0 0.0
2018-Jun-20 12:59N 46°45' W 092°08'0 0.0
2018-Jun-20 12:30N 46°45' W 092°08'0 0.0
2018-Jun-20 12:00N 46°45' W 092°08'0 0.0
2018-Jun-20 11:30N 46°45' W 092°08'0 0.0
2018-Jun-20 11:00N 46°45' W 092°08'0 0.0
2018-Jun-20 10:30N 46°45' W 092°08'0 0.0
2018-Jun-20 10:00N 46°45' W 092°08'0 0.0
2018-Jun-20 09:30N 46°45' W 092°08'0 0.0
2018-Jun-20 09:00N 46°45' W 092°08'0 0.0
2018-Jun-20 08:30N 46°45' W 092°08'0 0.0
2018-Jun-20 08:00N 46°45' W 092°08'0 0.0
2018-Jun-20 07:30N 46°45' W 092°08'0 0.0
2018-Jun-20 07:00N 46°45' W 092°08'0 0.0
2018-Jun-20 06:30N 46°45' W 092°08'0 0.0
2018-Jun-20 06:00N 46°45' W 092°08'0 0.8
2018-Jun-20 05:30N 46°45' W 092°08'1 2.8
2018-Jun-20 05:00N 46°45' W 092°06'0 1.0
2018-Jun-20 04:30N 46°46' W 092°06'0 0.0
2018-Jun-20 04:00N 46°46' W 092°06'0 0.3
2018-Jun-20 03:30N 46°46' W 092°06'3 5.5
2018-Jun-20 03:00N 46°48' W 092°03'612.3
2018-Jun-20 02:30N 46°50' W 091°54'612.4
2018-Jun-20 01:59N 46°52' W 091°46'612.4
2018-Jun-20 01:30N 46°54' W 091°38'7812.0
2018-Jun-19 19:00N 47°18' W 089°48'3712.4 020 / 111020.610.8 6.1 4.9
2018-Jun-19 16:00N 47°24' W 088°54'2121.2 060 / 121019.910.8 6.1 4.4
2018-Jun-19 15:00N 47°30' W 088°24'7911.3 070 / 131022.010.8 7.4
2018-Jun-19 08:00N 47°12' W 086°30'1717.4 020 / 121019.2 5.4 6.6
2018-Jun-19 07:00N 47°06' W 086°06'60 5.0 040 / 131018.610.8 7.2 4.4
2018-Jun-18 19:00N 46°06' W 086°00'9531.6 310 / 151013.810.8 15.5
2018-Jun-18 16:00N 45°42' W 083°48'514.4 270 / 151012.5 0.5 15.5 5.5
2018-Jun-18 15:38N 45°37' W 083°49'212.4
2018-Jun-18 15:30N 45°35' W 083°48'612.4
2018-Jun-18 15:00N 45°29' W 083°47'4 8.7
2018-Jun-18 14:30N 45°25' W 083°47'0 0.4
2018-Jun-18 14:00N 45°25' W 083°47'0 0.0
2018-Jun-18 13:30N 45°25' W 083°47'0 0.1
2018-Jun-18 13:00N 45°25' W 083°47'0 0.0
2018-Jun-18 12:28N 45°25' W 083°47'0 0.1
2018-Jun-18 12:00N 45°25' W 083°47'0 0.0
2018-Jun-18 11:30N 45°25' W 083°47'0 0.0
2018-Jun-18 11:00N 45°25' W 083°47'0 0.0
2018-Jun-18 10:30N 45°25' W 083°47'0 0.0
2018-Jun-18 10:00N 45°25' W 083°47'0 0.0
2018-Jun-18 09:30N 45°25' W 083°47'0 0.0
2018-Jun-18 09:00N 45°25' W 083°47'0 0.0
2018-Jun-18 08:30N 45°25' W 083°47'0 0.1
2018-Jun-18 08:00N 45°25' W 083°47'0 0.0
2018-Jun-18 07:30N 45°25' W 083°47'0 0.0
2018-Jun-18 07:00N 45°25' W 083°47'0 0.0
2018-Jun-18 06:30N 45°25' W 083°47'0 0.0
2018-Jun-18 06:00N 45°25' W 083°47'0 0.0
2018-Jun-18 05:30N 45°25' W 083°47'0 0.0
2018-Jun-18 05:00N 45°25' W 083°47'0 0.0
2018-Jun-18 04:31N 45°25' W 083°47'0 0.0
2018-Jun-18 04:00N 45°25' W 083°47'0 0.0
2018-Jun-18 03:30N 45°25' W 083°47'0 0.0
2018-Jun-18 03:00N 45°25' W 083°47'0 0.0
2018-Jun-18 02:30N 45°25' W 083°47'0 0.0
2018-Jun-18 02:00N 45°25' W 083°47'0 0.0
2018-Jun-18 01:30N 45°25' W 083°47'0 0.0
2018-Jun-18 01:00N 45°25' W 083°47'0 0.0
2018-Jun-18 00:30N 45°25' W 083°47'0 0.0
2018-Jun-18 00:00N 45°25' W 083°47'0 0.1
2018-Jun-17 23:30N 45°25' W 083°47'1 1.6
2018-Jun-17 23:00N 45°25' W 083°46'4 7.9
2018-Jun-17 22:30N 45°25' W 083°41'612.7
2018-Jun-17 22:00N 45°24' W 083°32'7512.4
2018-Jun-17 16:00N 44°18' W 082°42'11410.4 180 / 131017.6 5.4 23.8 8.8
2018-Jun-17 05:00N 42°24' W 082°54'11 0.3 150 / 101018.210.8 21.6
2018-Jun-15 20:00N 42°30' W 082°42'56 9.3 220 / 41019.6 5.4 21.6
2018-Jun-15 14:00N 43°24' W 082°24'10513.2 340 / 71020.310.8 12.7
2018-Jun-15 06:00N 45°06' W 083°00'17 8.7 320 / 151019.210.8 13.3 6.1
2018-Jun-15 04:00N 45°18' W 083°18'4 0.4 320 / 121019.210.8 12.2 5.5
2018-Jun-14 17:00N 45°18' W 083°24'0 0.0 320 / 221018.610.8 14.9 5.5
2018-Jun-14 08:00N 45°18' W 083°24'0 0.0 270 / 121015.910.8 13.3 17.7
2018-Jun-14 07:00N 45°18' W 083°24'49 9.8 310 / 181014.510.8 16.1 7.2
2018-Jun-14 02:00N 44°36' W 082°48'4310.7 290 / 211014.510.8 16.0
2018-Jun-13 22:00N 43°54' W 082°36'3712.3 330 / 301011.510.8 18.3 16.1
2018-Jun-13 19:00N 43°18' W 082°24'1212.0 320 / 331009.8 5.4 22.2 13.3
2018-Jun-13 18:00N 43°06' W 082°24'78 5.6 270 / 301009.8 5.4 24.9 13.8
2018-Jun-13 04:00N 41°48' W 082°18'32 2.9 220 / 171011.8 5.4 19.4 18.3
2018-Jun-12 17:00N 41°30' W 081°42'154 6.7 1018.610.8 24.9
2018-Jun-11 18:00N 44°00' W 082°30'9292.2 050 / 151020.610.8 11.1 5.5
2018-Jun-11 17:00N 44°18' W 084°36'8282.3
2018-Jun-11 16:00N 44°30' W 082°42'   080 / 131022.010.8 9.4 6.1
Track history (hours):
 
Tides and Currents Weather Stations Pressure Air Temp Water Temp Dewpoint Dewpoint Depression Visibility Wind Speed Wind Dir Waves Ship Positions

Great Republic

Owner: Great Lakes Fleet, Inc., Homewood, IL. More information available from US FCC via Universal Licensing System and Coast Guard Vessel Documentation Center.

Last reported at 2018-Jun-21 16:00 UTC. Time now 2018-Jun-21 16:29 UTC.
Position N 47°36' W 088°06'.

Length 190 m; draft 6.4 m.

Type: . MMSI: 368183000.

Wind from 110 at 18 knots

Barometer 1018.6 mb
Air temperature 6.1 ° C
Visibility: greater than 10.8 NM
Water temperature 4.4 ° C

Date/timePositionNaut miles runAvg speedWind from/ knotsBaromVisibWave heightAir tempDewpointWater temp
2018-Jun-21 16:00N 47°36' W 088°06'7913.2 110 / 181018.610.8 6.1 4.4
2018-Jun-21 10:00N 47°18' W 090°00'2610.6 090 / 201015.9 5.4 4.9
2018-Jun-21 07:34N 47°13' W 090°37'112.7
2018-Jun-21 07:30N 47°13' W 090°38'24 9.5
2018-Jun-21 05:00N 47°06' W 091°12'1429.8 040 / 181015.910.8 7.2 4.9
2018-Jun-21 04:31N 46°58' W 091°29'212.4
2018-Jun-21 04:24N 46°58' W 091°31'512.4
2018-Jun-21 04:00N 46°56' W 091°38'2274.9
2018-Jun-21 04:00N 46°54' W 091°36'714.1 050 / 241015.910.8 7.7 5.5
2018-Jun-21 03:30N 46°53' W 091°46'612.1
2018-Jun-21 03:00N 46°50' W 091°54'612.1
2018-Jun-21 02:30N 46°48' W 092°02'3 6.8
2018-Jun-21 02:00N 46°46' W 092°06'1 1.5
2018-Jun-21 01:30N 46°45' W 092°06'1 1.7
2018-Jun-21 00:59N 46°45' W 092°07'0 0.0
2018-Jun-21 00:30N 46°45' W 092°07'0 0.0
2018-Jun-21 00:00N 46°45' W 092°07'0 0.0
2018-Jun-20 23:25N 46°45' W 092°07'0 0.0
2018-Jun-20 23:00N 46°45' W 092°07'0 0.0
2018-Jun-20 22:30N 46°45' W 092°07'0 0.0
2018-Jun-20 22:00N 46°45' W 092°07'0 0.0
2018-Jun-20 21:30N 46°45' W 092°07'0 0.0
2018-Jun-20 21:00N 46°45' W 092°07'1 0.5
2018-Jun-20 19:41N 46°45' W 092°08'0 0.0
2018-Jun-20 19:30N 46°45' W 092°08'0 0.0
2018-Jun-20 19:00N 46°45' W 092°08'0 0.0
2018-Jun-20 18:30N 46°45' W 092°08'3 6.0
2018-Jun-20 18:00N 46°42' W 092°06'32777.0 270 / 31014.510.8 23.3
2018-Jun-20 17:59N 46°45' W 092°08'0 0.0
2018-Jun-20 17:30N 46°45' W 092°08'0 0.0
2018-Jun-20 17:00N 46°45' W 092°08'0 0.0
2018-Jun-20 16:30N 46°45' W 092°08'0 0.0
2018-Jun-20 16:00N 46°45' W 092°08'31851.4
2018-Jun-20 16:00N 46°42' W 092°06'3 6.1 020 / 21015.510.8 21.6
2018-Jun-20 15:29N 46°45' W 092°08'0 0.2
2018-Jun-20 15:00N 46°45' W 092°08'0 0.6
2018-Jun-20 14:30N 46°45' W 092°08'0 0.0
2018-Jun-20 14:00N 46°45' W 092°08'0 0.0
2018-Jun-20 13:30N 46°45' W 092°08'0 0.0
2018-Jun-20 12:59N 46°45' W 092°08'0 0.0
2018-Jun-20 12:30N 46°45' W 092°08'0 0.0
2018-Jun-20 12:00N 46°45' W 092°08'0 0.0
2018-Jun-20 11:30N 46°45' W 092°08'0 0.0
2018-Jun-20 11:00N 46°45' W 092°08'0 0.0
2018-Jun-20 10:30N 46°45' W 092°08'0 0.0
2018-Jun-20 10:00N 46°45' W 092°08'0 0.0
2018-Jun-20 09:30N 46°45' W 092°08'0 0.0
2018-Jun-20 09:00N 46°45' W 092°08'0 0.0
2018-Jun-20 08:30N 46°45' W 092°08'0 0.0
2018-Jun-20 08:00N 46°45' W 092°08'0 0.0
2018-Jun-20 07:30N 46°45' W 092°08'0 0.0
2018-Jun-20 07:00N 46°45' W 092°08'0 0.0
2018-Jun-20 06:30N 46°45' W 092°08'0 0.0
2018-Jun-20 06:00N 46°45' W 092°08'0 0.8
2018-Jun-20 05:30N 46°45' W 092°08'1 2.8
2018-Jun-20 05:00N 46°45' W 092°06'0 1.0
2018-Jun-20 04:30N 46°46' W 092°06'0 0.0
2018-Jun-20 04:00N 46°46' W 092°06'0 0.3
2018-Jun-20 03:30N 46°46' W 092°06'3 5.5
2018-Jun-20 03:00N 46°48' W 092°03'612.3
2018-Jun-20 02:30N 46°50' W 091°54'612.4
2018-Jun-20 01:59N 46°52' W 091°46'612.4
2018-Jun-20 01:30N 46°54' W 091°38'7812.0
2018-Jun-19 19:00N 47°18' W 089°48'3712.4 020 / 111020.610.8 6.1 4.9
2018-Jun-19 16:00N 47°24' W 088°54'2121.2 060 / 121019.910.8 6.1 4.4
2018-Jun-19 15:00N 47°30' W 088°24'7911.3 070 / 131022.010.8 7.4
2018-Jun-19 08:00N 47°12' W 086°30'1717.4 020 / 121019.2 5.4 6.6
2018-Jun-19 07:00N 47°06' W 086°06'60 5.0 040 / 131018.610.8 7.2 4.4
2018-Jun-18 19:00N 46°06' W 086°00'9531.6 310 / 151013.810.8 15.5
2018-Jun-18 16:00N 45°42' W 083°48'514.4 270 / 151012.5 0.5 15.5 5.5
2018-Jun-18 15:38N 45°37' W 083°49'212.4
2018-Jun-18 15:30N 45°35' W 083°48'612.4
2018-Jun-18 15:00N 45°29' W 083°47'4 8.7
2018-Jun-18 14:30N 45°25' W 083°47'0 0.4
2018-Jun-18 14:00N 45°25' W 083°47'0 0.0
2018-Jun-18 13:30N 45°25' W 083°47'0 0.1
2018-Jun-18 13:00N 45°25' W 083°47'0 0.0
2018-Jun-18 12:28N 45°25' W 083°47'0 0.1
2018-Jun-18 12:00N 45°25' W 083°47'0 0.0
2018-Jun-18 11:30N 45°25' W 083°47'0 0.0
2018-Jun-18 11:00N 45°25' W 083°47'0 0.0
2018-Jun-18 10:30N 45°25' W 083°47'0 0.0
2018-Jun-18 10:00N 45°25' W 083°47'0 0.0
2018-Jun-18 09:30N 45°25' W 083°47'0 0.0
2018-Jun-18 09:00N 45°25' W 083°47'0 0.0
2018-Jun-18 08:30N 45°25' W 083°47'0 0.1
2018-Jun-18 08:00N 45°25' W 083°47'0 0.0
2018-Jun-18 07:30N 45°25' W 083°47'0 0.0
2018-Jun-18 07:00N 45°25' W 083°47'0 0.0
2018-Jun-18 06:30N 45°25' W 083°47'0 0.0
2018-Jun-18 06:00N 45°25' W 083°47'0 0.0
2018-Jun-18 05:30N 45°25' W 083°47'0 0.0
2018-Jun-18 05:00N 45°25' W 083°47'0 0.0
2018-Jun-18 04:31N 45°25' W 083°47'0 0.0
2018-Jun-18 04:00N 45°25' W 083°47'0 0.0
2018-Jun-18 03:30N 45°25' W 083°47'0 0.0
2018-Jun-18 03:00N 45°25' W 083°47'0 0.0
2018-Jun-18 02:30N 45°25' W 083°47'0 0.0
2018-Jun-18 02:00N 45°25' W 083°47'0 0.0
2018-Jun-18 01:30N 45°25' W 083°47'0 0.0
2018-Jun-18 01:00N 45°25' W 083°47'0 0.0
2018-Jun-18 00:30N 45°25' W 083°47'0 0.0
2018-Jun-18 00:00N 45°25' W 083°47'0 0.1
2018-Jun-17 23:30N 45°25' W 083°47'1 1.6
2018-Jun-17 23:00N 45°25' W 083°46'4 7.9
2018-Jun-17 22:30N 45°25' W 083°41'612.7
2018-Jun-17 22:00N 45°24' W 083°32'7512.4
2018-Jun-17 16:00N 44°18' W 082°42'11410.4 180 / 131017.6 5.4 23.8 8.8
2018-Jun-17 05:00N 42°24' W 082°54'11 0.3 150 / 101018.210.8 21.6
2018-Jun-15 20:00N 42°30' W 082°42'56 9.3 220 / 41019.6 5.4 21.6
2018-Jun-15 14:00N 43°24' W 082°24'10513.2 340 / 71020.310.8 12.7
2018-Jun-15 06:00N 45°06' W 083°00'17 8.7 320 / 151019.210.8 13.3 6.1
2018-Jun-15 04:00N 45°18' W 083°18'4 0.4 320 / 121019.210.8 12.2 5.5
2018-Jun-14 17:00N 45°18' W 083°24'0 0.0 320 / 221018.610.8 14.9 5.5
2018-Jun-14 08:00N 45°18' W 083°24'0 0.0 270 / 121015.910.8 13.3 17.7
2018-Jun-14 07:00N 45°18' W 083°24'49 9.8 310 / 181014.510.8 16.1 7.2
2018-Jun-14 02:00N 44°36' W 082°48'4310.7 290 / 211014.510.8 16.0
2018-Jun-13 22:00N 43°54' W 082°36'3712.3 330 / 301011.510.8 18.3 16.1
2018-Jun-13 19:00N 43°18' W 082°24'1212.0 320 / 331009.8 5.4 22.2 13.3
2018-Jun-13 18:00N 43°06' W 082°24'78 5.6 270 / 301009.8 5.4 24.9 13.8
2018-Jun-13 04:00N 41°48' W 082°18'32 2.9 220 / 171011.8 5.4 19.4 18.3
2018-Jun-12 17:00N 41°30' W 081°42'154 6.7 1018.610.8 24.9
2018-Jun-11 18:00N 44°00' W 082°30'9292.2 050 / 151020.610.8 11.1 5.5
2018-Jun-11 17:00N 44°18' W 084°36'8282.3
2018-Jun-11 16:00N 44°30' W 082°42'   080 / 131022.010.8 9.4 6.1

Dump ship's entire track history